createdAt,value
2023-05-23T00:01:55.287Z,14.18
2023-05-23T00:04:22.234Z,14.19
2023-05-23T00:06:50.660Z,14.15
2023-05-23T00:09:17.587Z,14.17
2023-05-23T00:11:45.499Z,14.23
2023-05-23T00:14:13.638Z,14.18
2023-05-23T00:16:45.049Z,14.21
2023-05-23T00:19:14.821Z,14.14
2023-05-23T00:21:43.749Z,14.11
2023-05-23T00:24:10.587Z,14.19
2023-05-23T00:26:37.255Z,14.12
2023-05-23T00:29:03.915Z,14.11
2023-05-23T00:31:30.635Z,14.06
2023-05-23T00:33:57.516Z,14.03
2023-05-23T00:36:24.227Z,13.94
2023-05-23T00:38:50.874Z,13.92
2023-05-23T00:41:18.592Z,13.88
2023-05-23T00:43:45.453Z,13.81
2023-05-23T00:46:12.207Z,13.82
2023-05-23T00:48:39.005Z,13.79
2023-05-23T00:51:05.848Z,13.73
2023-05-23T00:53:33.780Z,13.68
2023-05-23T00:56:00.587Z,13.84
2023-05-23T00:58:27.594Z,13.67
2023-05-23T01:00:55.723Z,13.62
2023-05-23T01:03:23.981Z,13.45
2023-05-23T01:05:51.580Z,13.37
2023-05-23T01:08:18.264Z,13.36
2023-05-23T01:10:44.921Z,13.29
2023-05-23T01:13:29.985Z,13.23
2023-05-23T01:16:09.412Z,13.11
2023-05-23T01:18:51.063Z,13.05
2023-05-23T01:21:18.457Z,13.07
2023-05-23T01:24:21.778Z,13.14
2023-05-23T01:27:20.487Z,13.02
2023-05-23T01:29:48.561Z,12.94
2023-05-23T01:32:16.387Z,12.91
2023-05-23T01:34:43.803Z,12.85
2023-05-23T01:37:11.677Z,12.82
2023-05-23T01:39:38.532Z,12.76
2023-05-23T01:42:05.803Z,12.80
2023-05-23T01:44:34.321Z,12.76
2023-05-23T01:47:05.357Z,12.71
2023-05-23T01:49:32.656Z,12.74
2023-05-23T01:52:00.968Z,12.64
2023-05-23T01:54:29.448Z,12.63
2023-05-23T01:56:59.607Z,12.62
2023-05-23T01:59:26.439Z,12.67
2023-05-23T02:01:53.056Z,12.58
2023-05-23T02:04:19.772Z,12.58
2023-05-23T02:06:47.453Z,12.57
2023-05-23T02:09:14.330Z,12.62
2023-05-23T02:11:40.986Z,12.62
2023-05-23T02:14:11.229Z,12.59
2023-05-23T02:16:38.113Z,12.58
2023-05-23T02:19:04.879Z,12.63
2023-05-23T02:21:34.227Z,12.59
2023-05-23T02:24:01.832Z,12.67
2023-05-23T02:26:28.486Z,12.61
2023-05-23T02:28:55.119Z,12.67
2023-05-23T02:31:22.236Z,12.78
2023-05-23T02:33:48.973Z,12.74
2023-05-23T02:36:15.658Z,12.71
2023-05-23T02:38:42.295Z,12.71
2023-05-23T02:41:08.942Z,12.71
2023-05-23T02:43:35.796Z,12.74
2023-05-23T02:46:02.511Z,12.75
2023-05-23T02:48:29.209Z,12.77
2023-05-23T02:50:56.032Z,12.77
2023-05-23T02:53:22.741Z,12.79
2023-05-23T02:55:49.430Z,12.75
2023-05-23T02:58:16.424Z,12.82
2023-05-23T03:00:44.087Z,12.83
2023-05-23T03:03:11.442Z,12.79
2023-05-23T03:05:38.328Z,12.80
2023-05-23T03:08:05.606Z,12.85
2023-05-23T03:10:32.375Z,12.91
2023-05-23T03:12:59.173Z,12.89
2023-05-23T03:15:25.944Z,12.94
2023-05-23T03:17:52.793Z,12.95
2023-05-23T03:20:19.750Z,13.01
2023-05-23T03:22:46.544Z,12.98
2023-05-23T03:25:16.286Z,12.96
2023-05-23T03:27:43.064Z,13.02
2023-05-23T03:30:10.889Z,13.07
2023-05-23T03:32:37.807Z,13.05
2023-05-23T03:35:04.850Z,13.09
2023-05-23T03:37:31.639Z,13.14
2023-05-23T03:39:58.417Z,13.13
2023-05-23T03:42:25.231Z,13.09
2023-05-23T03:44:52.058Z,13.11
2023-05-23T03:47:18.829Z,13.16
2023-05-23T03:49:46.054Z,13.19
2023-05-23T03:52:12.827Z,13.18
2023-05-23T03:54:39.645Z,13.13
2023-05-23T03:57:07.094Z,13.12
2023-05-23T03:59:34.202Z,13.21
2023-05-23T04:02:01.465Z,13.19
2023-05-23T04:04:29.736Z,13.17
2023-05-23T04:06:56.742Z,13.22
2023-05-23T04:09:23.556Z,13.28
2023-05-23T04:11:50.470Z,13.24
2023-05-23T04:14:17.661Z,13.22
2023-05-23T04:16:44.967Z,13.23
2023-05-23T04:19:12.545Z,13.36
2023-05-23T04:21:39.332Z,13.27
2023-05-23T04:24:06.452Z,13.22
2023-05-23T04:26:33.112Z,13.18
2023-05-23T04:29:00.273Z,13.20
2023-05-23T04:31:27.095Z,13.34
2023-05-23T04:33:53.852Z,13.43
2023-05-23T04:36:20.609Z,13.32
2023-05-23T04:38:47.300Z,13.44
2023-05-23T04:41:16.388Z,13.43
2023-05-23T04:43:43.133Z,13.59
2023-05-23T04:46:10.206Z,13.60
2023-05-23T04:48:38.589Z,13.61
2023-05-23T04:51:08.554Z,13.56
2023-05-23T04:53:36.961Z,13.55
2023-05-23T04:56:03.747Z,13.58
2023-05-23T04:58:31.860Z,13.68
2023-05-23T05:00:58.858Z,13.65
2023-05-23T05:03:26.418Z,13.71
2023-05-23T05:05:53.754Z,13.67
2023-05-23T05:08:20.589Z,13.76
2023-05-23T05:10:47.510Z,13.84
2023-05-23T05:13:14.165Z,13.89
2023-05-23T05:15:40.936Z,13.92
2023-05-23T05:18:07.643Z,14.01
2023-05-23T05:20:34.401Z,14.04
2023-05-23T05:23:01.323Z,14.05
2023-05-23T05:25:31.863Z,14.04
2023-05-23T05:28:06.025Z,14.11
2023-05-23T05:30:36.150Z,14.16
2023-05-23T05:33:04.582Z,14.20
2023-05-23T05:35:35.077Z,14.23
2023-05-23T05:38:04.740Z,14.22
2023-05-23T05:40:34.968Z,14.18
2023-05-23T05:43:01.669Z,14.22
2023-05-23T05:45:28.346Z,14.18
2023-05-23T05:47:55.092Z,14.24
2023-05-23T05:50:21.881Z,14.30
2023-05-23T05:52:48.561Z,14.40
2023-05-23T05:55:15.221Z,14.34
2023-05-23T05:57:42.043Z,14.41
2023-05-23T06:00:15.354Z,14.46
2023-05-23T06:02:47.548Z,14.34
2023-05-23T06:05:16.407Z,14.43
2023-05-23T06:07:44.019Z,14.57
2023-05-23T06:10:13.997Z,14.70
2023-05-23T06:12:40.792Z,14.90
2023-05-23T06:15:08.133Z,15.10
2023-05-23T06:17:34.802Z,15.17
2023-05-23T06:20:01.537Z,15.09
2023-05-23T06:22:28.289Z,15.10
2023-05-23T06:24:54.967Z,15.07
2023-05-23T06:27:21.632Z,15.14
2023-05-23T06:29:48.295Z,15.21
2023-05-23T06:32:14.962Z,15.29
2023-05-23T06:34:41.687Z,15.45
2023-05-23T06:37:08.357Z,15.39
2023-05-23T06:39:35.298Z,15.29
2023-05-23T06:42:02.482Z,15.32
2023-05-23T06:44:29.125Z,15.38
2023-05-23T06:46:57.688Z,15.49
2023-05-23T06:49:24.997Z,15.57
2023-05-23T06:51:52.175Z,15.69
2023-05-23T06:54:19.666Z,15.79
2023-05-23T06:56:46.365Z,15.94
2023-05-23T06:59:13.060Z,16.09
2023-05-23T07:01:40.050Z,16.19
2023-05-23T07:04:06.873Z,16.53
2023-05-23T07:06:35.797Z,16.61
2023-05-23T07:09:02.461Z,16.55
2023-05-23T07:11:29.145Z,16.31
2023-05-23T07:13:55.939Z,16.56
2023-05-23T07:16:22.618Z,16.68
2023-05-23T07:18:49.312Z,16.75
2023-05-23T07:21:16.076Z,16.83
2023-05-23T07:23:42.723Z,16.95
2023-05-23T07:26:09.901Z,17.06
2023-05-23T07:28:37.606Z,17.23
2023-05-23T07:31:04.948Z,17.39
2023-05-23T07:33:34.481Z,17.42
2023-05-23T07:36:01.484Z,17.45
2023-05-23T07:38:28.173Z,17.60
2023-05-23T07:41:06.816Z,17.69
2023-05-23T07:43:37.934Z,17.76
2023-05-23T07:46:04.647Z,17.82
2023-05-23T07:48:32.155Z,17.90
2023-05-23T07:50:58.906Z,17.93
2023-05-23T07:53:26.368Z,18.07
2023-05-23T07:55:53.247Z,18.35
2023-05-23T07:58:20.208Z,18.14
2023-05-23T08:00:46.920Z,18.02
2023-05-23T08:03:13.729Z,18.17
2023-05-23T08:05:40.519Z,18.30
2023-05-23T08:08:07.227Z,18.51
2023-05-23T08:10:33.964Z,18.72
2023-05-23T08:13:01.057Z,18.70
2023-05-23T08:15:28.828Z,18.80
2023-05-23T08:17:57.319Z,18.91
2023-05-23T08:20:30.752Z,19.16
2023-05-23T08:23:01.845Z,19.14
2023-05-23T08:25:32.093Z,19.29
2023-05-23T08:27:59.429Z,19.48
2023-05-23T08:30:26.443Z,19.65
2023-05-23T08:32:53.899Z,19.82
2023-05-23T08:35:21.087Z,20.16
2023-05-23T08:37:48.116Z,20.34
2023-05-23T08:40:19.594Z,20.42
2023-05-23T08:42:50.079Z,20.45
2023-05-23T08:45:17.354Z,19.62
2023-05-23T08:47:45.013Z,19.59
2023-05-23T08:50:20.181Z,20.18
2023-05-23T08:52:56.053Z,20.97
2023-05-23T08:55:28.121Z,21.48
2023-05-23T08:57:56.029Z,21.93
2023-05-23T09:00:23.404Z,22.09
2023-05-23T09:02:50.159Z,22.28
2023-05-23T09:05:17.325Z,20.95
2023-05-23T09:07:47.885Z,21.44
2023-05-23T09:10:17.176Z,21.83
2023-05-23T09:12:43.873Z,22.10
2023-05-23T09:15:11.411Z,21.96
2023-05-23T09:17:38.562Z,21.75
2023-05-23T09:20:17.046Z,21.91
2023-05-23T09:22:49.199Z,22.11
2023-05-23T09:25:16.340Z,21.97
2023-05-23T09:27:45.121Z,21.99
2023-05-23T09:30:14.627Z,21.92
2023-05-23T09:32:42.384Z,21.76
2023-05-23T09:35:13.870Z,21.87
2023-05-23T09:37:49.127Z,21.89
2023-05-23T09:40:16.382Z,21.91
2023-05-23T09:42:48.552Z,21.67
2023-05-23T09:45:17.165Z,21.72
2023-05-23T09:47:54.113Z,21.61
2023-05-23T09:50:21.327Z,21.57
2023-05-23T09:52:48.260Z,21.69
2023-05-23T09:55:15.253Z,21.86
2023-05-23T09:57:42.954Z,22.14
2023-05-23T10:00:13.964Z,22.29
2023-05-23T10:03:14.072Z,22.77
2023-05-23T10:05:51.931Z,22.90
2023-05-23T10:08:22.340Z,22.88
2023-05-23T10:10:58.273Z,22.86
2023-05-23T10:13:27.120Z,23.19
2023-05-23T10:16:17.268Z,23.35
2023-05-23T10:18:44.859Z,23.88
2023-05-23T10:21:19.412Z,24.39
2023-05-23T10:23:47.580Z,24.61
2023-05-23T10:26:14.342Z,24.57
2023-05-23T10:28:41.945Z,24.87
2023-05-23T10:31:08.617Z,25.03
2023-05-23T10:33:40.643Z,25.14
2023-05-23T10:36:14.866Z,24.83
2023-05-23T10:38:48.372Z,24.51
2023-05-23T10:41:26.284Z,24.52
2023-05-23T10:44:10.446Z,24.27
2023-05-23T10:47:04.353Z,24.09
2023-05-23T10:49:44.763Z,23.70
2023-05-23T10:52:13.749Z,23.33
2023-05-23T10:54:47.578Z,23.37
2023-05-23T10:57:22.558Z,23.05
2023-05-23T10:59:52.349Z,22.95
2023-05-23T11:02:20.344Z,22.86
2023-05-23T11:04:48.659Z,22.91
2023-05-23T11:07:33.715Z,22.57
2023-05-23T11:10:05.141Z,22.39
2023-05-23T11:12:42.701Z,22.60
2023-05-23T11:15:18.577Z,22.76
2023-05-23T11:17:56.146Z,23.09
2023-05-23T11:20:28.977Z,22.87
2023-05-23T11:23:01.214Z,22.86
2023-05-23T11:26:01.055Z,23.11
2023-05-23T11:28:28.671Z,23.02
2023-05-23T11:30:57.507Z,22.99
2023-05-23T11:33:24.175Z,23.12
2023-05-23T11:35:51.877Z,22.87
2023-05-23T11:38:18.933Z,22.91
2023-05-23T11:40:48.862Z,22.95
2023-05-23T11:43:17.010Z,22.88
2023-05-23T11:45:43.994Z,22.65
2023-05-23T11:48:15.042Z,22.22
2023-05-23T11:50:49.353Z,22.20
2023-05-23T11:53:19.119Z,22.04
2023-05-23T11:55:50.683Z,22.10
2023-05-23T11:58:17.463Z,21.97
2023-05-23T12:00:45.317Z,22.05
2023-05-23T12:03:12.593Z,21.82
2023-05-23T12:05:39.406Z,21.88
2023-05-23T12:08:06.101Z,21.72
2023-05-23T12:10:32.820Z,21.71
2023-05-23T12:12:59.924Z,21.79
2023-05-23T12:15:28.201Z,21.90
2023-05-23T12:17:56.313Z,21.89
2023-05-23T12:20:24.264Z,21.96
2023-05-23T12:22:50.897Z,21.99
2023-05-23T12:25:17.639Z,21.90
2023-05-23T12:27:44.392Z,21.88
2023-05-23T12:30:12.259Z,21.88
2023-05-23T12:32:43.056Z,22.03
2023-05-23T12:35:12.207Z,21.85
2023-05-23T12:37:40.517Z,21.95
2023-05-23T12:40:17.564Z,22.06
2023-05-23T12:42:54.227Z,22.04
2023-05-23T12:45:22.722Z,22.26
2023-05-23T12:47:51.413Z,22.35
2023-05-23T12:50:19.739Z,22.22
2023-05-23T12:52:46.442Z,22.17
2023-05-23T12:55:13.497Z,22.24
2023-05-23T12:57:40.169Z,22.43
2023-05-23T13:00:08.256Z,22.44
2023-05-23T13:02:35.081Z,22.34
2023-05-23T13:05:01.849Z,22.18
2023-05-23T13:07:29.344Z,21.86
2023-05-23T13:09:56.304Z,22.00
2023-05-23T13:12:23.109Z,22.04
2023-05-23T13:14:50.283Z,22.12
2023-05-23T13:17:17.267Z,21.70
2023-05-23T13:19:44.130Z,21.72
2023-05-23T13:22:11.128Z,21.91
2023-05-23T13:24:38.454Z,21.95
2023-05-23T13:27:06.795Z,22.01
2023-05-23T13:29:34.172Z,22.08
2023-05-23T13:32:01.437Z,21.74
2023-05-23T13:34:28.721Z,21.93
2023-05-23T13:36:55.658Z,21.99
2023-05-23T13:39:22.880Z,21.72
2023-05-23T13:41:52.552Z,21.74
2023-05-23T13:44:19.558Z,21.75
2023-05-23T13:46:46.331Z,21.73
2023-05-23T13:49:13.046Z,21.73
2023-05-23T13:51:40.005Z,21.72
2023-05-23T13:54:06.713Z,21.70
2023-05-23T13:56:33.765Z,21.74
2023-05-23T13:59:00.969Z,21.86
2023-05-23T14:01:27.775Z,21.83
2023-05-23T14:03:54.544Z,21.73
2023-05-23T14:06:21.308Z,21.84
2023-05-23T14:08:48.028Z,21.73
2023-05-23T14:11:14.693Z,21.71
2023-05-23T14:13:41.342Z,21.64
2023-05-23T14:16:09.054Z,21.56
2023-05-23T14:18:35.707Z,21.59
2023-05-23T14:21:02.362Z,21.37
2023-05-23T14:23:29.039Z,21.37
2023-05-23T14:25:55.681Z,21.46
2023-05-23T14:28:22.490Z,21.46
2023-05-23T14:30:49.208Z,21.42
2023-05-23T14:33:15.982Z,21.53
2023-05-23T14:35:43.297Z,21.56
2023-05-23T14:38:10.331Z,21.56
2023-05-23T14:40:37.011Z,21.67
2023-05-23T14:43:03.658Z,21.51
2023-05-23T14:45:30.341Z,21.55
2023-05-23T14:47:57.103Z,21.50
2023-05-23T14:50:23.835Z,21.43
2023-05-23T14:52:50.702Z,21.39
2023-05-23T14:55:17.407Z,21.15
2023-05-23T14:57:44.151Z,21.19
2023-05-23T15:00:11.913Z,21.07
2023-05-23T15:02:38.825Z,20.91
2023-05-23T15:05:05.846Z,20.56
2023-05-23T15:07:38.769Z,20.15
2023-05-23T15:10:06.690Z,19.51
2023-05-23T15:12:33.606Z,19.25
2023-05-23T15:15:04.000Z,19.01
2023-05-23T15:17:32.570Z,18.73
2023-05-23T15:19:59.711Z,18.65
2023-05-23T15:24:56.066Z,18.27
2023-05-23T15:27:23.822Z,18.25
2023-05-23T15:29:50.640Z,18.17
2023-05-23T15:32:17.747Z,17.87
2023-05-23T15:34:44.509Z,17.64
2023-05-23T15:37:11.499Z,17.49
2023-05-23T15:39:38.311Z,17.40
2023-05-23T15:42:05.798Z,17.16
2023-05-23T15:44:33.606Z,17.16
2023-05-23T15:47:00.595Z,17.18
2023-05-23T15:49:27.652Z,17.01
2023-05-23T15:51:55.431Z,17.00
2023-05-23T15:54:23.184Z,16.72
2023-05-23T15:56:50.469Z,16.73
2023-05-23T15:59:17.364Z,16.52
2023-05-23T16:01:45.989Z,16.51
2023-05-23T16:04:12.849Z,16.24
2023-05-23T16:06:40.405Z,16.17
2023-05-23T16:09:08.906Z,16.02
2023-05-23T16:11:35.890Z,15.90
2023-05-23T16:14:02.707Z,15.90
2023-05-23T16:16:29.458Z,15.78
2023-05-23T16:18:56.262Z,15.70
2023-05-23T16:21:23.380Z,15.69
2023-05-23T16:23:52.231Z,15.64
2023-05-23T16:26:19.726Z,15.59
2023-05-23T16:28:47.098Z,15.55
2023-05-23T16:31:17.172Z,15.68
2023-05-23T16:33:44.616Z,15.64
2023-05-23T16:36:11.510Z,15.59
2023-05-23T16:38:38.203Z,15.61
2023-05-23T16:41:04.950Z,15.60
2023-05-23T16:43:34.684Z,15.59
2023-05-23T16:46:01.426Z,15.44
2023-05-23T16:48:28.306Z,15.16
2023-05-23T16:50:55.265Z,14.89
2023-05-23T16:53:23.180Z,14.69
2023-05-23T16:55:50.296Z,14.60
2023-05-23T16:58:19.249Z,14.64
2023-05-23T17:00:47.736Z,14.60
2023-05-23T17:03:14.615Z,14.30
2023-05-23T17:05:42.334Z,14.40
2023-05-23T17:08:09.686Z,14.34
2023-05-23T17:10:37.687Z,14.09
2023-05-23T17:13:04.613Z,13.91
2023-05-23T17:15:31.621Z,13.76
2023-05-23T17:17:58.487Z,13.65
2023-05-23T17:20:27.186Z,13.69
2023-05-23T17:22:54.083Z,13.40
2023-05-23T17:25:20.884Z,13.32
2023-05-23T17:27:47.591Z,13.42
2023-05-23T17:30:18.214Z,13.26
2023-05-23T17:32:46.321Z,13.19
2023-05-23T17:35:13.031Z,13.19
2023-05-23T17:37:43.314Z,13.11
2023-05-23T17:40:11.577Z,12.92
2023-05-23T17:42:42.120Z,12.97
2023-05-23T17:45:09.869Z,12.83
2023-05-23T17:47:36.903Z,12.82
2023-05-23T17:50:04.565Z,12.69
2023-05-23T17:52:31.362Z,12.70
2023-05-23T17:54:58.567Z,12.52
2023-05-23T17:57:25.595Z,12.59
2023-05-23T17:59:52.283Z,12.59
2023-05-23T18:02:19.358Z,12.58
2023-05-23T18:04:48.904Z,12.58
2023-05-23T18:07:18.705Z,12.58
2023-05-23T18:09:46.458Z,12.51
2023-05-23T18:12:13.600Z,12.45
2023-05-23T18:14:40.554Z,12.54
2023-05-23T18:17:08.520Z,12.59
2023-05-23T18:19:35.805Z,12.59
2023-05-23T18:22:02.495Z,12.65
2023-05-23T18:24:29.146Z,12.72
2023-05-23T18:26:56.474Z,12.74
2023-05-23T18:29:23.230Z,12.72
2023-05-23T18:31:49.905Z,12.65
2023-05-23T18:34:16.593Z,12.70
2023-05-23T18:36:43.355Z,12.70
2023-05-23T18:39:09.990Z,12.77
2023-05-23T18:41:36.661Z,12.73
2023-05-23T18:44:05.102Z,12.56
2023-05-23T18:46:31.828Z,12.73
2023-05-23T18:48:58.528Z,12.70
2023-05-23T18:51:26.223Z,12.76
2023-05-23T18:53:52.967Z,12.76
2023-05-23T18:56:20.737Z,12.55
2023-05-23T18:58:49.436Z,12.58
2023-05-23T19:01:16.681Z,12.64
2023-05-23T19:03:45.258Z,12.70
2023-05-23T19:06:12.512Z,12.85
2023-05-23T19:08:39.218Z,12.86
2023-05-23T19:11:06.065Z,12.78
2023-05-23T19:13:32.809Z,12.80
2023-05-23T19:15:59.629Z,12.74
2023-05-23T19:18:26.380Z,12.77
2023-05-23T19:20:54.179Z,12.90
2023-05-23T19:23:21.408Z,12.79
2023-05-23T19:25:48.226Z,12.83
2023-05-23T19:28:17.755Z,12.80
2023-05-23T19:30:44.616Z,12.73
2023-05-23T19:33:11.621Z,12.78
2023-05-23T19:35:38.517Z,12.84
2023-05-23T19:38:05.335Z,12.79
2023-05-23T19:40:32.010Z,12.65
2023-05-23T19:42:58.703Z,12.70
2023-05-23T19:45:25.568Z,12.64
2023-05-23T19:47:52.724Z,12.79
2023-05-23T19:50:21.842Z,12.89
2023-05-23T19:52:48.943Z,12.75
2023-05-23T19:55:15.994Z,12.70
2023-05-23T19:57:42.665Z,12.81
2023-05-23T20:00:10.680Z,12.67
2023-05-23T20:02:37.546Z,12.82
2023-05-23T20:05:04.700Z,12.69
2023-05-23T20:07:31.594Z,12.73
2023-05-23T20:09:58.302Z,12.76
2023-05-23T20:12:25.200Z,12.65
2023-05-23T20:14:51.932Z,12.65
2023-05-23T20:17:18.789Z,12.67
2023-05-23T20:19:45.475Z,12.72
2023-05-23T20:22:12.128Z,12.67
2023-05-23T20:24:38.836Z,12.51
2023-05-23T20:27:07.222Z,12.58
2023-05-23T20:29:34.998Z,12.59
2023-05-23T20:32:02.285Z,12.49
2023-05-23T20:34:29.093Z,12.61
2023-05-23T20:36:55.870Z,12.67
2023-05-23T20:39:24.060Z,12.52
2023-05-23T20:41:50.783Z,12.44
2023-05-23T20:44:18.277Z,12.31
2023-05-23T20:46:45.064Z,12.39
2023-05-23T20:49:11.790Z,12.47
2023-05-23T20:51:38.693Z,12.51
2023-05-23T20:54:06.089Z,12.52
2023-05-23T20:56:33.050Z,12.46
2023-05-23T20:59:00.400Z,12.37
2023-05-23T21:01:27.615Z,12.35
2023-05-23T21:03:55.177Z,12.22
2023-05-23T21:06:22.455Z,12.31
2023-05-23T21:08:49.198Z,12.32
2023-05-23T21:11:15.948Z,12.26
2023-05-23T21:13:42.959Z,12.00
2023-05-23T21:16:12.520Z,12.07
2023-05-23T21:18:39.263Z,12.04
2023-05-23T21:21:06.007Z,12.05
2023-05-23T21:23:32.693Z,11.96
2023-05-23T21:25:59.350Z,11.90
2023-05-23T21:28:26.080Z,11.93
2023-05-23T21:30:56.225Z,11.86
2023-05-23T21:33:23.068Z,11.86
2023-05-23T21:35:49.754Z,11.84
2023-05-23T21:38:16.414Z,11.86
2023-05-23T21:40:43.342Z,11.93
2023-05-23T21:43:10.244Z,11.87
2023-05-23T21:45:36.920Z,11.79
2023-05-23T21:48:03.671Z,11.48
2023-05-23T21:50:30.339Z,11.51
2023-05-23T21:52:57.048Z,11.46
2023-05-23T21:55:23.922Z,11.45
2023-05-23T21:57:50.575Z,11.42
2023-05-23T22:00:19.101Z,11.46
2023-05-23T22:02:46.147Z,11.44
2023-05-23T22:05:13.277Z,11.26
2023-05-23T22:07:40.034Z,11.23
2023-05-23T22:10:07.373Z,11.13
2023-05-23T22:12:34.043Z,11.15
2023-05-23T22:15:01.050Z,11.21
2023-05-23T22:17:27.709Z,11.20
2023-05-23T22:19:55.850Z,11.11
2023-05-23T22:22:22.665Z,11.04
2023-05-23T22:24:49.373Z,11.09
2023-05-23T22:27:16.111Z,10.99
2023-05-23T22:29:42.859Z,11.05
2023-05-23T22:32:09.766Z,11.11
2023-05-23T22:34:36.538Z,11.08
2023-05-23T22:37:03.300Z,11.00
2023-05-23T22:39:30.198Z,10.96
2023-05-23T22:41:56.874Z,11.07
2023-05-23T22:44:23.546Z,11.05
2023-05-23T22:46:52.198Z,11.16
2023-05-23T22:49:21.852Z,11.13
2023-05-23T22:51:48.698Z,11.20
2023-05-23T22:54:15.434Z,11.19
2023-05-23T22:56:42.122Z,11.17
2023-05-23T22:59:08.854Z,11.12
2023-05-23T23:01:35.697Z,11.09
2023-05-23T23:04:02.492Z,11.08
2023-05-23T23:06:29.394Z,11.06
2023-05-23T23:08:56.081Z,11.09
2023-05-23T23:11:22.759Z,11.26
2023-05-23T23:13:49.425Z,11.24
2023-05-23T23:16:19.301Z,11.07
2023-05-23T23:18:47.192Z,11.27
2023-05-23T23:21:13.959Z,11.31
2023-05-23T23:23:40.986Z,11.23
2023-05-23T23:26:07.718Z,11.30
2023-05-23T23:28:34.395Z,11.34
2023-05-23T23:31:01.259Z,11.30
2023-05-23T23:33:28.001Z,11.29
2023-05-23T23:35:54.750Z,11.21
2023-05-23T23:38:21.398Z,11.26
2023-05-23T23:40:48.065Z,11.18
2023-05-23T23:43:14.771Z,11.17
2023-05-23T23:45:41.490Z,11.25
2023-05-23T23:48:08.259Z,11.24
2023-05-23T23:50:35.041Z,11.14
2023-05-23T23:53:01.708Z,11.26
2023-05-23T23:55:28.387Z,11.15
2023-05-23T23:57:55.206Z,11.13
